Time;durP1;ratioP1;P1;durP2;ratioP2;P2;SDS_P1;SDS_P2;PMS_P1;PMS_P2;Temp;Humidity;BMP_temperature;BMP_pressure;BME280_temperature;BME280_humidity;BME280_pressure;Samples;Min_cycle;Max_cycle;Signal;HPM_P1;HPM_P2
2022/08/05 00:00:31;;;;;;;7.40;1.70;;;26.00;91.80;;;25.56;100.00;97333.72;4958241;28;20571;-63
2022/08/05 00:03:12;;;;;;;6.47;1.83;;;25.90;91.90;;;25.53;100.00;97346.50;4940873;28;20386;-64
2022/08/05 00:05:42;;;;;;;7.90;2.05;;;26.00;91.90;;;25.61;100.00;97347.34;4945255;28;20106;-63
2022/08/05 00:08:29;;;;;;;4.72;1.40;;;26.00;92.10;;;25.49;100.00;97361.13;4941133;28;20059;-63
2022/08/05 00:11:11;;;;;;;7.50;1.70;;;25.90;92.30;;;25.48;100.00;97362.09;4959677;28;20093;-64
2022/08/05 00:13:56;;;;;;;9.02;1.75;;;25.80;92.50;;;25.35;100.00;97350.13;4938375;28;20495;-65
2022/08/05 00:16:23;;;;;;;5.15;1.67;;;25.70;93.00;;;25.33;100.00;97338.84;4938915;28;20573;-64
2022/08/05 00:19:10;;;;;;;6.20;1.55;;;25.60;93.20;;;25.33;100.00;97338.84;4942099;28;20414;-64
2022/08/05 00:21:37;;;;;;;6.97;1.85;;;25.60;93.30;;;25.28;100.00;97338.50;4956023;28;20185;-64
2022/08/05 00:24:08;;;;;;;9.17;1.60;;;25.70;93.40;;;25.37;100.00;97332.22;4944681;28;20055;-63
2022/08/05 00:26:38;;;;;;;4.63;1.83;;;25.70;93.40;;;25.39;100.00;97319.59;4959393;28;20350;-63
2022/08/05 00:29:15;;;;;;;5.97;1.55;;;25.60;93.60;;;25.23;100.00;97299.16;4942322;29;20419;-65
2022/08/05 00:31:43;;;;;;;7.10;1.98;;;25.60;94.00;;;25.12;100.00;97295.97;4938718;29;20051;-63
2022/08/05 00:34:31;;;;;;;8.43;2.20;;;25.50;94.20;;;25.04;100.00;97280.84;4942395;28;20418;-63
2022/08/05 00:37:18;;;;;;;4.65;1.83;;;25.40;94.40;;;25.00;100.00;97268.91;4939655;28;20061;-63
2022/08/05 00:39:46;;;;;;;8.02;1.55;;;25.40;94.60;;;24.92;100.00;97245.81;4936828;28;20666;-64
2022/08/05 00:42:36;;;;;;;5.65;1.80;;;25.30;94.80;;;24.94;100.00;97222.56;4943028;28;20434;-64
2022/08/05 00:45:07;;;;;;;4.85;1.83;;;25.30;95.10;;;24.96;100.00;97202.00;4940113;28;20134;-64
2022/08/05 00:47:37;;;;;;;7.03;1.70;;;25.30;94.90;;;24.94;100.00;97182.75;4937891;29;20128;-64
2022/08/05 00:50:23;;;;;;;6.43;1.63;;;25.30;94.80;;;25.00;100.00;97178.63;4939649;28;20070;-64
2022/08/05 00:52:52;;;;;;;4.90;1.63;;;25.30;94.60;;;25.11;100.00;97193.38;4943270;28;20055;-64
2022/08/05 00:55:22;;;;;;;5.55;1.23;;;25.30;94.10;;;25.19;100.00;97196.06;4940300;28;20098;-64
2022/08/05 00:58:13;;;;;;;6.13;1.98;;;25.30;93.70;;;25.16;100.00;97194.56;4936594;29;20043;-64
2022/08/05 01:00:40;;;;;;;5.00;1.40;;;25.40;93.70;;;25.20;100.00;97169.34;4939330;29;20065;-63
2022/08/05 01:03:09;;;;;;;12.70;1.63;;;25.40;94.10;;;24.97;100.00;97169.13;4934566;29;20182;-63
2022/08/05 01:05:50;;;;;;;4.00;1.40;;;25.30;94.30;;;24.80;100.00;97192.19;4938737;28;20052;-63
2022/08/05 01:08:21;;;;;;;4.75;1.50;;;25.30;94.60;;;24.94;100.00;97192.56;4943731;28;20130;-64
2022/08/05 01:11:31;;;;;;;3.95;1.65;;;25.20;94.60;;;24.71;100.00;97222.38;4937910;28;20047;-64
2022/08/05 01:14:29;;;;;;;3.13;1.30;;;25.30;94.80;;;24.86;100.00;97227.03;4955548;28;20055;-63
2022/08/05 01:17:12;;;;;;;6.25;1.48;;;25.30;94.80;;;24.99;100.00;97220.25;4936972;28;20054;-64
2022/08/05 01:19:44;;;;;;;;;;;25.30;94.90;;;25.14;100.00;97227.59;4942119;28;20516;-63
2022/08/05 01:23:06;;;;;;;2.80;1.20;;;25.30;95.00;;;24.97;100.00;97235.50;4937140;28;20312;-64
2022/08/05 01:26:16;;;;;;;5.47;1.40;;;25.40;95.70;;;25.10;100.00;97226.25;4942123;28;20099;-63
2022/08/05 01:29:03;;;;;;;7.63;1.92;;;25.40;95.50;;;24.95;100.00;97226.91;4936606;28;20087;-62
2022/08/05 01:31:42;;;;;;;5.53;1.58;;;25.30;95.80;;;24.42;100.00;97263.38;4952925;28;20283;-64
2022/08/05 01:34:19;;;;;;;3.15;1.17;;;25.20;96.40;;;24.37;100.00;97265.69;4956336;28;20086;-63
2022/08/05 01:36:54;;;;;;;10.32;1.92;;;25.00;97.10;;;23.69;100.00;97297.44;4949486;28;20138;-64
2022/08/05 01:39:21;;;;;;;5.38;1.38;;;24.80;99.90;;;22.86;100.00;97329.41;4955285;28;20504;-63
2022/08/05 01:42:13;;;;;;;6.03;1.83;;;24.10;99.90;;;22.41;100.00;97377.78;4953857;28;20059;-64
2022/08/05 01:44:43;;;;;;;5.13;1.75;;;23.60;99.90;;;22.17;100.00;97399.38;4936552;28;20051;-64
2022/08/05 01:47:21;;;;;;;8.70;2.25;;;23.10;99.90;;;21.86;100.00;97444.50;4952799;28;20144;-63
2022/08/05 01:49:52;;;;;;;10.10;2.40;;;22.80;99.90;;;21.66;100.00;97489.38;4948031;28;20422;-64
2022/08/05 01:52:30;;;;;;;7.53;2.38;;;22.50;99.90;;;21.40;100.00;97512.84;4950856;28;20596;-63
2022/08/05 01:55:04;;;;;;;4.03;1.70;;;22.40;99.90;;;21.48;100.00;97507.72;4952440;28;20038;-63
2022/08/05 01:57:39;;;;;;;4.82;2.03;;;22.20;99.90;;;21.55;100.00;97500.06;4951818;28;20501;-62
2022/08/05 02:00:28;;;;;;;6.50;2.60;;;22.20;99.90;;;21.30;100.00;97512.78;4947770;28;20673;-64
2022/08/05 02:03:08;;;;;;;10.32;2.83;;;22.10;99.90;;;21.13;100.00;97533.69;4949415;28;20062;-63
2022/08/05 02:05:55;;;;;;;6.00;2.60;;;21.90;99.90;;;21.17;100.00;97564.13;4935087;29;20047;-64
2022/08/05 02:08:27;;;;;;;6.32;2.53;;;21.80;99.90;;;21.16;100.00;97581.75;4951604;28;20051;-62
2022/08/05 02:11:10;;;;;;;9.32;2.95;;;21.80;99.90;;;21.21;100.00;97600.69;4953013;28;20043;-64
2022/08/05 02:13:43;;;;;;;6.50;2.70;;;21.80;99.90;;;21.24;100.00;97583.75;4958000;28;20051;-63
2022/08/05 02:16:50;;;;;;;5.38;2.35;;;21.70;99.90;;;21.64;100.00;97520.38;4940608;28;20044;-64
2022/08/05 02:19:36;;;;;;;5.20;2.42;;;21.90;99.90;;;21.82;100.00;97428.06;4939056;28;20056;-63
2022/08/05 02:22:17;;;;;;;10.68;3.20;;;22.10;99.90;;;21.42;100.00;97496.88;4954181;28;20052;-64
2022/08/05 02:25:07;;;;;;;6.85;2.63;;;22.00;99.90;;;21.24;100.00;97552.91;4957476;28;20166;-63
2022/08/05 02:27:40;;;;;;;7.82;2.50;;;21.80;99.90;;;21.07;100.00;97562.28;4955249;28;20500;-64
2022/08/05 02:30:36;;;;;;;6.35;2.50;;;21.60;99.90;;;21.08;100.00;97587.69;4939632;29;20051;-64
2022/08/05 02:33:21;;;;;;;6.53;2.22;;;21.50;99.90;;;21.03;100.00;97600.47;4959773;28;20059;-63
2022/08/05 02:36:10;;;;;;;9.95;3.40;;;21.50;99.90;;;20.73;100.00;97618.84;4941048;28;20048;-63
2022/08/05 02:38:48;;;;;;;9.77;3.00;;;21.40;99.90;;;20.45;100.00;97664.13;4958413;28;20074;-63
2022/08/05 02:41:22;;;;;;;7.70;3.45;;;21.20;99.90;;;20.16;100.00;97723.63;4955246;28;20052;-63
2022/08/05 02:43:50;;;;;;;9.13;3.70;;;21.00;99.90;;;19.99;100.00;97778.50;4953931;28;20153;-64
2022/08/05 02:46:41;;;;;;;14.60;4.07;;;20.80;99.90;;;20.06;100.00;97813.94;4951931;28;20051;-62
2022/08/05 02:49:38;;;;;;;8.20;3.92;;;20.70;99.90;;;20.03;100.00;97879.22;4954804;28;20147;-64
2022/08/05 02:52:18;;;;;;;7.68;4.13;;;20.70;99.90;;;19.99;100.00;97899.69;4953371;28;20075;-63
2022/08/05 02:54:59;;;;;;;11.02;4.15;;;20.70;99.90;;;19.81;100.00;98017.81;4956490;28;20102;-64
2022/08/05 02:57:32;;;;;;;8.50;3.53;;;20.60;99.90;;;19.78;100.00;98033.03;4943114;29;20074;-63
2022/08/05 03:00:19;;;;;;;8.18;2.67;;;20.50;99.90;;;19.82;100.00;98053.75;4951852;28;20456;-62
2022/08/05 03:02:47;;;;;;;7.03;2.15;;;20.40;99.90;;;19.99;100.00;98004.25;4955150;28;20430;-63
2022/08/05 03:05:15;;;;;;;6.13;2.13;;;20.40;99.90;;;19.87;100.00;97948.03;4951977;28;20138;-63
2022/08/05 03:07:48;;;;;;;5.03;2.50;;;20.30;99.90;;;19.84;100.00;97921.91;4943380;28;20051;-62
2022/08/05 03:10:34;;;;;;;3.80;2.00;;;20.30;99.90;;;19.91;100.00;97914.38;4938502;29;20476;-63
2022/08/05 03:13:18;;;;;;;7.50;2.42;;;20.30;99.90;;;19.96;100.00;97872.75;4953965;28;20063;-62
2022/08/05 03:15:53;;;;;;;5.50;2.20;;;20.40;99.90;;;19.97;100.00;97862.06;4937318;29;20066;-63
2022/08/05 03:18:21;;;;;;;5.57;2.28;;;20.40;99.90;;;19.89;100.00;97832.88;4938593;28;20065;-63
2022/08/05 03:20:55;;;;;;;3.97;2.20;;;20.30;99.90;;;19.90;100.00;97820.53;4943106;28;20691;-63
2022/08/05 03:23:23;;;;;;;5.15;2.30;;;20.30;99.90;;;19.95;100.00;97824.47;4951994;28;20056;-63
2022/08/05 03:25:50;;;;;;;2.97;1.95;;;20.40;99.90;;;19.95;100.00;97835.00;4943234;29;20477;-63
2022/08/05 03:28:37;;;;;;;5.50;2.30;;;20.40;99.90;;;19.91;100.00;97835.34;4952235;28;20051;-63
2022/08/05 03:31:05;;;;;;;4.35;2.13;;;20.40;99.90;;;20.20;100.00;97828.69;4935375;29;20047;-63
2022/08/05 03:33:33;;;;;;;4.95;2.50;;;20.50;99.90;;;20.14;100.00;97837.09;4953402;28;20048;-63
2022/08/05 03:36:19;;;;;;;4.55;2.00;;;20.50;99.90;;;20.20;100.00;97847.13;4952215;28;20075;-63
2022/08/05 03:38:56;;;;;;;4.47;2.35;;;20.50;99.90;;;20.21;100.00;97848.81;4957495;28;20047;-64
2022/08/05 03:41:24;;;;;;;8.30;2.65;;;20.60;99.90;;;20.20;100.00;97852.41;4940778;28;20513;-63
2022/08/05 03:43:58;;;;;;;6.53;2.65;;;20.70;99.90;;;20.00;100.00;97874.16;4938330;28;20078;-62
2022/08/05 03:46:37;;;;;;;4.43;2.15;;;20.60;99.90;;;20.05;100.00;97886.06;4939403;29;20083;-64
2022/08/05 03:49:05;;;;;;;6.38;2.40;;;20.50;99.90;;;20.33;100.00;97891.00;4939439;28;20203;-63
2022/08/05 03:51:38;;;;;;;4.40;2.13;;;20.50;99.90;;;20.42;100.00;97893.75;4943686;28;20087;-63
2022/08/05 03:54:47;;;;;;;3.80;2.10;;;20.60;99.90;;;20.40;100.00;97879.84;4954776;28;20503;-63
2022/08/05 03:57:37;;;;;;;5.35;2.58;;;20.70;99.90;;;20.33;100.00;97844.38;4938082;28;20058;-64
2022/08/05 04:00:12;;;;;;;5.28;2.38;;;20.60;99.90;;;20.26;100.00;97851.94;4953661;28;20524;-62
2022/08/05 04:02:46;;;;;;;6.18;2.50;;;20.60;99.90;;;20.03;100.00;97881.88;4935983;29;20078;-63
2022/08/05 04:05:29;;;;;;;6.30;2.70;;;20.60;99.90;;;20.18;100.00;97891.22;4952623;28;20545;-63
2022/08/05 04:08:06;;;;;;;4.43;2.28;;;20.50;99.90;;;20.37;100.00;97877.47;4935632;28;20133;-63
2022/08/05 04:10:55;;;;;;;5.18;2.53;;;20.50;99.90;;;20.15;100.00;97877.44;4939739;29;20063;-62
2022/08/05 04:13:24;;;;;;;7.10;2.67;;;20.50;99.90;;;20.09;100.00;97881.38;4949098;28;20239;-64
2022/08/05 04:16:12;;;;;;;4.45;2.38;;;20.50;99.90;;;20.35;100.00;97874.09;4950761;28;20075;-62
2022/08/05 04:18:40;;;;;;;5.10;2.13;;;20.60;99.90;;;20.42;100.00;97863.94;4942332;28;20397;-63
2022/08/05 04:21:07;;;;;;;5.03;2.42;;;20.70;99.90;;;20.44;100.00;97848.81;4938640;28;20497;-63
2022/08/05 04:23:38;;;;;;;3.80;2.40;;;20.70;99.90;;;20.48;100.00;97843.19;4956294;28;20122;-63
2022/08/05 04:26:25;;;;;;;3.78;2.10;;;20.70;99.90;;;20.47;100.00;97838.84;4948453;28;20758;-64
2022/08/05 04:28:58;;;;;;;4.60;2.10;;;20.80;99.90;;;20.47;100.00;97836.22;4952884;28;20481;-63
2022/08/05 04:31:25;;;;;;;3.25;1.77;;;20.90;99.90;;;20.53;100.00;97829.66;4941453;28;20063;-62
2022/08/05 04:34:04;;;;;;;4.60;2.15;;;21.00;99.90;;;20.72;100.00;97797.38;4943468;28;20151;-63
2022/08/05 04:36:51;;;;;;;6.18;1.95;;;21.00;99.90;;;20.87;100.00;97793.50;4938764;29;20131;-63
2022/08/05 04:39:19;;;;;;;3.75;1.95;;;21.10;99.90;;;21.01;100.00;97807.38;4957832;28;20475;-63
2022/08/05 04:41:48;;;;;;;4.28;2.22;;;21.20;99.90;;;20.91;100.00;97804.63;4938164;29;20055;-63
2022/08/05 04:44:18;;;;;;;4.72;1.73;;;21.20;99.90;;;21.05;100.00;97820.22;4938006;28;20051;-64
2022/08/05 04:46:57;;;;;;;4.15;2.17;;;21.30;99.90;;;21.17;100.00;97788.50;4937950;29;20457;-64
2022/08/05 04:49:26;;;;;;;3.17;1.95;;;21.40;99.90;;;21.10;100.00;97773.16;4941140;28;20055;-64
2022/08/05 04:52:13;;;;;;;5.65;2.03;;;21.50;99.90;;;21.19;100.00;97750.44;4939382;28;20051;-63
2022/08/05 04:54:41;;;;;;;4.57;2.20;;;21.60;99.90;;;21.19;100.00;97736.38;4935480;28;20138;-63
2022/08/05 04:57:08;;;;;;;4.38;2.03;;;21.60;99.90;;;21.04;100.00;97728.78;4937585;29;20138;-63
2022/08/05 04:59:35;;;;;;;6.45;2.00;;;21.60;99.90;;;21.18;100.00;97721.53;4936861;29;20521;-63
2022/08/05 05:02:05;;;;;;;4.05;2.17;;;21.60;99.90;;;21.09;100.00;97733.69;4940963;29;20126;-64
2022/08/05 05:04:52;;;;;;;3.72;1.90;;;21.60;99.90;;;21.12;100.00;97733.44;4950025;28;20054;-63
2022/08/05 05:07:29;;;;;;;6.00;2.28;;;21.60;99.90;;;21.02;100.00;97733.34;4941955;28;20524;-63
2022/08/05 05:10:02;;;;;;;5.25;1.98;;;21.60;99.90;;;20.98;100.00;97736.38;4937962;29;20125;-63
2022/08/05 05:12:30;;;;;;;2.83;1.85;;;21.60;99.90;;;20.89;100.00;97736.19;4938985;28;20059;-63
2022/08/05 05:14:57;;;;;;;3.97;2.33;;;21.50;99.90;;;20.94;100.00;97745.50;4939652;28;20509;-63
2022/08/05 05:17:24;;;;;;;5.60;2.10;;;21.50;99.90;;;20.91;100.00;97740.47;4931000;29;20150;-63
2022/08/05 05:20:12;;;;;;;5.43;2.42;;;21.50;99.90;;;21.07;100.00;97715.34;4942559;28;20050;-63
2022/08/05 05:22:40;;;;;;;2.92;1.52;;;21.60;99.90;;;21.15;100.00;97696.22;4938156;28;20131;-63
2022/08/05 05:25:12;;;;;;;4.90;2.47;;;21.70;99.90;;;21.12;100.00;97695.63;4951158;28;20545;-64
2022/08/05 05:27:43;;;;;;;2.95;1.75;;;21.70;99.90;;;21.20;100.00;97694.03;4950710;28;20122;-64
2022/08/05 05:30:20;;;;;;;3.03;1.70;;;21.80;99.90;;;21.60;100.00;97676.63;4953063;28;20131;-63
2022/08/05 05:33:02;;;;;;;3.28;1.65;;;22.00;99.90;;;21.67;100.00;97649.56;4949250;28;20067;-63
2022/08/05 05:35:45;;;;;;;4.55;1.90;;;22.20;99.90;;;21.81;100.00;97636.97;4940867;28;20050;-63
2022/08/05 05:38:16;;;;;;;4.50;2.20;;;22.30;99.90;;;21.79;100.00;97633.63;4956513;28;20078;-63
2022/08/05 05:40:54;;;;;;;6.07;2.00;;;;;;;21.79;100.00;97633.63;4939587;28;20055;-63
2022/08/05 05:43:22;;;;;;;7.43;1.98;;;22.40;99.90;;;21.88;100.00;97604.56;4940342;28;20106;-62
2022/08/05 05:46:09;;;;;;;2.67;1.58;;;22.40;99.90;;;21.98;100.00;97594.00;4951734;28;20114;-63
2022/08/05 05:48:46;;;;;;;3.97;1.90;;;22.40;99.90;;;22.03;100.00;97575.97;4958846;28;20641;-63
2022/08/05 05:51:23;;;;;;;4.97;1.60;;;22.40;99.90;;;22.06;100.00;97565.09;4941730;28;20047;-63
2022/08/05 05:53:53;;;;;;;4.35;1.60;;;22.50;99.90;;;21.99;100.00;97581.66;4942512;29;20075;-64
2022/08/05 05:56:30;;;;;;;4.00;1.65;;;22.50;99.90;;;22.03;100.00;97602.38;4942336;29;20518;-64
2022/08/05 05:59:05;;;;;;;3.60;1.70;;;22.50;99.90;;;21.19;100.00;97642.22;4959496;28;20139;-64
2022/08/05 06:01:38;;;;;;;6.95;2.35;;;22.20;99.90;;;20.42;100.00;97698.66;4954716;28;20086;-64
2022/08/05 06:04:08;;;;;;;5.55;2.35;;;21.80;99.90;;;19.85;100.00;97747.94;4936644;28;20047;-63
2022/08/05 06:06:43;;;;;;;6.10;2.63;;;21.30;99.90;;;20.14;100.00;97780.88;4942868;28;20069;-63
2022/08/05 06:09:16;;;;;;;3.60;1.88;;;21.00;99.90;;;20.18;100.00;97788.41;4954746;28;20458;-63
2022/08/05 06:11:53;;;;;;;4.22;2.03;;;20.90;99.90;;;19.99;100.00;97790.84;4941524;28;20055;-63
2022/08/05 06:14:28;;;;;;;4.30;2.22;;;20.90;99.90;;;19.80;100.00;97801.97;4941416;29;20052;-64
2022/08/05 06:16:56;;;;;;;5.43;2.20;;;20.70;99.90;;;19.85;100.00;97805.91;4945349;28;20076;-63
2022/08/05 06:19:25;;;;;;;8.38;2.13;;;20.50;99.90;;;19.79;100.00;97827.44;4954204;28;20079;-63
2022/08/05 06:22:05;;;;;;;3.92;1.85;;;20.40;99.90;;;20.01;100.00;97818.72;4945171;28;20135;-63
2022/08/05 06:24:34;;;;;;;5.00;2.65;;;20.50;99.90;;;20.10;100.00;97825.09;4940478;28;20127;-62
2022/08/05 06:27:02;;;;;;;6.53;2.58;;;20.50;99.90;;;20.02;100.00;97836.22;4953780;28;20135;-64
2022/08/05 06:29:30;;;;;;;3.88;2.28;;;20.40;99.90;;;19.76;100.00;97855.81;4953826;28;20103;-63
2022/08/05 06:32:19;;;;;;;4.63;2.45;;;20.40;99.90;;;19.97;100.00;97859.44;4938750;28;20058;-63
2022/08/05 06:34:54;;;;;;;3.80;2.25;;;20.40;99.90;;;19.94;100.00;97866.75;4951986;28;20226;-64
2022/08/05 06:37:27;;;;;;;4.65;2.55;;;20.40;99.90;;;19.88;100.00;97865.41;4940675;28;20768;-64
2022/08/05 06:40:15;;;;;;;3.80;2.28;;;20.40;99.90;;;19.87;100.00;97895.38;4942510;29;20457;-63
2022/08/05 06:42:47;;;;;;;;;;;20.30;99.90;;;19.60;100.00;97906.97;4941786;28;20055;-63
2022/08/05 06:45:22;;;;;;;9.05;2.78;;;20.30;99.90;;;19.39;100.00;97940.97;4941709;29;19922;-63
2022/08/05 06:48:09;;;;;;;6.03;2.97;;;20.20;99.90;;;19.44;100.00;97970.44;4943078;28;20158;-63
2022/08/05 06:50:56;;;;;;;5.22;2.95;;;20.10;99.90;;;19.35;100.00;97973.72;4943064;28;20057;-63
2022/08/05 06:53:23;;;;;;;3.55;2.70;;;20.10;99.90;;;19.32;100.00;97981.84;4957262;28;20098;-62
2022/08/05 06:55:59;;;;;;;5.75;3.00;;;20.10;99.90;;;19.26;100.00;97997.25;4954234;28;20057;-63
2022/08/05 06:58:27;;;;;;;6.30;3.00;;;20.00;99.90;;;19.47;100.00;98014.13;4955532;28;20051;-63
2022/08/05 07:01:04;;;;;;;6.00;2.92;;;20.10;99.90;;;19.57;100.00;98030.13;4940673;28;20051;-63
2022/08/05 07:03:33;;;;;;;5.13;3.00;;;20.10;99.90;;;19.47;100.00;98040.44;4940306;29;20130;-63
2022/08/05 07:06:03;;;;;;;6.70;3.15;;;20.20;99.90;;;19.44;100.00;98045.94;4959147;28;20074;-63
2022/08/05 07:08:41;;;;;;;5.22;3.10;;;20.10;99.90;;;19.41;100.00;98036.47;4942823;28;20413;-63
2022/08/05 07:11:15;;;;;;;5.43;2.88;;;20.10;99.90;;;19.58;100.00;98019.47;4941097;29;20043;-63
2022/08/05 07:19:34;;;;;;;7.80;3.00;;;20.50;99.90;;;19.86;100.00;97996.41;4941183;28;20055;-63
2022/08/05 07:22:21;;;;;;;6.35;2.95;;;20.50;99.90;;;19.99;100.00;97976.09;4954667;28;20373;-63
2022/08/05 07:24:59;;;;;;;4.93;2.53;;;20.50;99.90;;;20.05;100.00;97951.94;4942632;28;20051;-63
2022/08/05 07:27:51;;;;;;;7.03;2.80;;;20.60;99.90;;;19.77;100.00;97968.09;4942712;29;20047;-63
2022/08/05 07:30:25;;;;;;;12.23;3.42;;;20.60;99.90;;;19.93;100.00;97984.44;4944868;28;20107;-63
2022/08/05 07:33:03;;;;;;;7.00;2.95;;;20.60;99.90;;;20.16;100.00;97981.91;4939189;28;20473;-63
2022/08/05 07:35:37;;;;;;;6.03;3.17;;;20.70;99.90;;;20.29;100.00;97974.75;4942745;28;20125;-63
2022/08/05 07:38:26;;;;;;;4.57;2.38;;;20.90;99.90;;;20.40;100.00;97950.22;4943862;28;20633;-62
2022/08/05 07:41:07;;;;;;;3.80;2.47;;;21.00;99.90;;;20.79;100.00;97938.38;4939772;29;20178;-63
2022/08/05 07:43:56;;;;;;;4.10;2.92;;;21.20;99.90;;;20.60;100.00;97888.88;4939952;28;20428;-63
2022/08/05 07:46:25;;;;;;;6.85;2.53;;;21.20;99.90;;;20.83;100.00;97880.94;4939011;29;20679;-62
2022/08/05 07:48:58;;;;;;;5.70;2.65;;;21.20;99.90;;;20.48;100.00;97889.78;4956336;28;20051;-62
2022/08/05 07:51:35;;;;;;;4.43;2.78;;;21.20;99.90;;;20.23;100.00;97911.94;4940349;29;20459;-63
2022/08/05 07:54:20;;;;;;;4.95;2.58;;;21.00;99.90;;;20.41;100.00;97914.97;4939927;28;20059;-62
2022/08/05 07:56:52;;;;;;;6.50;2.50;;;21.00;99.90;;;20.67;100.00;97907.69;4942258;28;20059;-62
2022/08/05 07:59:39;;;;;;;2.65;2.10;;;21.10;99.90;;;20.83;100.00;97865.13;4937322;29;20385;-63
2022/08/05 08:02:09;;;;;;;3.03;1.88;;;21.20;99.90;;;20.86;100.00;97836.69;4938744;28;20123;-62
2022/08/05 08:04:45;;;;;;;4.95;2.38;;;21.30;99.90;;;20.91;100.00;97827.56;4937198;28;20114;-63
2022/08/05 08:07:13;;;;;;;5.00;2.22;;;21.40;99.90;;;21.14;100.00;97813.31;4940917;28;20081;-64
2022/08/05 08:09:41;;;;;;;4.47;1.90;;;21.40;99.90;;;21.42;100.00;97808.47;4940248;28;20082;-64
2022/08/05 08:12:09;;;;;;;5.57;2.30;;;21.70;99.90;;;21.18;100.00;97787.53;4937930;28;20134;-63
2022/08/05 08:14:56;;;;;;;5.60;2.47;;;21.80;99.90;;;21.06;100.00;97794.66;4940429;28;20054;-63
2022/08/05 08:17:31;;;;;;;4.25;2.35;;;21.90;99.90;;;21.08;100.00;97813.84;4940092;28;20138;-62
2022/08/05 08:19:58;;;;;;;5.55;2.25;;;21.90;99.90;;;21.23;100.00;97820.50;4934374;28;20134;-63
2022/08/05 08:22:51;;;;;;;5.50;2.45;;;21.80;99.90;;;21.22;100.00;97805.63;4940612;28;20392;-64
2022/08/05 08:25:18;;;;;;;4.32;2.38;;;21.90;99.90;;;21.53;100.00;97784.63;4940915;28;20128;-63
2022/08/05 08:28:05;;;;;;;3.13;1.70;;;22.10;99.90;;;22.15;100.00;97774.94;4935855;28;20067;-63
2022/08/05 08:30:45;;;;;;;5.28;2.15;;;22.40;99.90;;;22.33;100.00;97752.19;4940255;28;20587;-63
2022/08/05 08:33:16;;;;;;;4.75;1.90;;;22.80;99.90;;;22.59;100.00;97729.72;4942423;28;20058;-64
2022/08/05 08:35:45;;;;;;;6.05;2.10;;;23.10;99.90;;;22.26;100.00;97723.78;4937449;28;20056;-64
2022/08/05 08:38:29;;;;;;;4.28;2.15;;;23.10;99.90;;;22.57;100.00;97732.47;4940310;28;20054;-64
2022/08/05 08:41:07;;;;;;;5.35;2.22;;;23.30;99.90;;;22.96;100.00;97712.16;4941491;28;20051;-63
2022/08/05 08:43:36;;;;;;;6.63;1.95;;;23.60;99.90;;;23.27;100.00;97695.31;4956086;28;20130;-64
2022/08/05 08:46:29;;;;;;;4.15;1.80;;;23.90;99.90;;;23.31;100.00;97671.06;4938569;28;20046;-64
2022/08/05 08:48:58;;;;;;;5.22;1.83;;;24.00;99.90;;;23.51;100.00;97665.69;4940700;28;20051;-63
2022/08/05 08:52:05;;;;;;;3.88;1.80;;;24.20;99.90;;;23.58;100.00;97667.63;4941138;28;20062;-64
2022/08/05 08:54:54;;;;;;;5.97;2.08;;;24.40;99.90;;;23.21;100.00;97653.50;4950678;28;20044;-64
2022/08/05 08:57:24;;;;;;;6.22;2.15;;;24.70;99.90;;;23.48;100.00;97663.34;4939334;28;20074;-64
2022/08/05 09:00:12;;;;;;;4.88;2.30;;;24.50;99.90;;;22.80;100.00;97666.06;4937047;28;20055;-64
2022/08/05 09:02:43;;;;;;;5.70;2.35;;;24.30;99.90;;;22.48;100.00;97690.97;4952473;28;20101;-63
2022/08/05 09:05:12;;;;;;;6.80;3.05;;;24.20;99.90;;;22.49;100.00;97701.44;4953710;28;20051;-64
2022/08/05 09:07:43;;;;;;;7.40;2.83;;;24.10;99.90;;;22.89;100.00;97710.22;4938882;29;20533;-63
2022/08/05 09:10:24;;;;;;;4.55;2.20;;;24.20;99.90;;;22.49;100.00;97721.75;4940566;28;20079;-64
2022/08/05 09:12:56;;;;;;;4.78;2.65;;;24.20;99.90;;;23.21;100.00;97714.41;4957517;28;20308;-63
2022/08/05 09:15:31;;;;;;;6.88;2.28;;;24.20;99.90;;;22.85;100.00;97693.78;4941539;28;20055;-64
2022/08/05 09:18:09;;;;;;;4.75;1.80;;;24.20;99.90;;;23.55;100.00;97677.66;4939152;28;20099;-63
2022/08/05 09:20:42;;;;;;;4.53;2.20;;;24.40;99.90;;;23.61;100.00;97673.63;4942335;28;20126;-64
2022/08/05 09:23:19;;;;;;;3.25;1.80;;;24.60;99.90;;;24.09;100.00;97636.31;4940334;28;20493;-64
2022/08/05 09:26:05;;;;;;;7.30;1.95;;;24.90;99.90;;;24.09;100.00;97641.59;4944072;28;20062;-64
2022/08/05 09:28:37;;;;;;;3.50;1.90;;;25.10;99.90;;;24.17;100.00;97643.50;4949150;28;20058;-63
2022/08/05 09:31:14;;;;;;;3.97;1.40;;;25.20;99.90;;;24.36;100.00;97618.69;4944215;28;20061;-64
2022/08/05 09:34:10;;;;;;;2.72;1.73;;;25.10;99.90;;;23.82;100.00;97636.31;4947095;29;20437;-63
2022/08/05 09:36:48;;;;;;;3.92;2.10;;;25.10;99.90;;;23.41;100.00;97656.94;4945824;28;20130;-63
2022/08/05 09:39:26;;;;;;;4.82;2.58;;;24.90;99.90;;;23.04;100.00;97665.69;4946469;28;20130;-64
2022/08/05 09:42:16;;;;;;;3.63;2.35;;;24.70;99.90;;;22.28;100.00;97700.69;4944656;28;20073;-63
2022/08/05 09:44:54;;;;;;;5.50;2.35;;;24.40;99.90;;;22.51;100.00;97706.56;4941062;28;20048;-63
2022/08/05 09:47:29;;;;;;;17.75;2.80;;;24.10;99.90;;;22.55;100.00;97716.72;4941881;28;20485;-64
2022/08/05 09:50:19;;;;;;;3.67;2.17;;;24.00;99.90;;;22.44;100.00;97722.16;4946986;28;20055;-64
2022/08/05 09:53:06;;;;;;;3.60;2.15;;;23.90;99.90;;;23.32;100.00;97701.84;4941638;29;20079;-64
2022/08/05 09:55:38;;;;;;;5.43;2.33;;;23.90;99.90;;;22.93;100.00;97696.56;4941610;28;20137;-62
2022/08/05 09:58:26;;;;;;;3.13;2.20;;;24.10;99.90;;;23.22;100.00;97700.19;4942417;29;20417;-64
2022/08/05 10:01:06;;;;;;;5.10;2.42;;;24.00;99.90;;;23.38;100.00;97680.09;4940445;28;20081;-63
2022/08/05 10:04:09;;;;;;;5.53;2.50;;;24.10;99.90;;;23.43;100.00;97687.59;4957091;28;20129;-63
2022/08/05 10:06:54;;;;;;;4.32;2.28;;;24.00;99.90;;;23.42;100.00;97662.09;4944697;29;20225;-63
2022/08/05 10:09:27;;;;;;;3.05;1.90;;;24.00;99.90;;;23.28;100.00;97639.53;4956157;28;20051;-63
2022/08/05 10:12:10;;;;;;;10.85;3.22;;;23.90;99.90;;;23.13;100.00;97649.75;4957984;28;20142;-63
2022/08/05 10:15:26;;;;;;;6.53;2.55;;;23.90;99.90;;;21.83;100.00;97723.06;4940239;28;20058;-63
2022/08/05 10:18:13;;;;;;;3.60;1.95;;;23.30;99.90;;;22.27;100.00;97742.16;4943390;28;20069;-63
2022/08/05 10:20:54;;;;;;;4.13;2.70;;;23.00;99.90;;;22.16;100.00;97741.41;4942630;28;20134;-62
2022/08/05 10:23:32;;;;;;;3.38;2.20;;;23.00;99.90;;;22.35;100.00;97746.75;4938779;29;20501;-63
2022/08/05 10:26:19;;;;;;;4.10;2.22;;;23.20;99.90;;;23.06;100.00;97740.47;4943756;29;20704;-64
2022/08/05 10:28:58;;;;;;;4.43;2.22;;;23.50;99.90;;;23.58;100.00;97720.63;4939451;28;20048;-64
2022/08/05 10:31:26;;;;;;;6.40;2.65;;;23.90;99.90;;;24.37;100.00;97716.66;4941670;28;20114;-64
2022/08/05 10:34:13;;;;;;;4.82;2.38;;;;;;;24.89;100.00;97686.84;4939325;28;20457;-64
2022/08/05 10:36:43;;;;;;;4.28;2.72;;;25.10;99.90;;;25.24;100.00;97693.13;4937130;28;20070;-63
2022/08/05 10:39:25;;;;;;;4.78;2.90;;;25.50;99.90;;;24.68;100.00;97684.53;4940841;28;20453;-63
2022/08/05 10:42:21;;;;;;;4.72;2.70;;;25.70;99.90;;;24.10;100.00;97687.50;4942971;28;20053;-63
2022/08/05 10:45:03;;;;;;;5.75;2.97;;;25.50;99.90;;;23.95;100.00;97695.97;4937955;28;20055;-64
2022/08/05 10:47:50;;;;;;;5.70;3.30;;;25.30;99.90;;;23.69;100.00;97700.22;4940513;28;20070;-64
2022/08/05 10:51:07;;;;;;;6.10;3.42;;;25.10;99.90;;;23.54;100.00;97694.56;4940954;28;20069;-63
2022/08/05 10:53:56;;;;;;;4.05;2.38;;;25.00;99.90;;;23.33;100.00;97714.13;4939134;28;20542;-65
2022/08/05 10:56:42;;;;;;;4.47;3.00;;;24.60;99.90;;;23.24;100.00;97735.31;4940000;28;20060;-63
2022/08/05 10:59:15;;;;;;;5.55;3.15;;;24.30;99.90;;;23.09;100.00;97727.81;4940946;28;20062;-64
2022/08/05 11:02:12;;;;;;;5.40;3.17;;;24.50;99.90;;;23.36;100.00;97739.50;4953358;28;20043;-64
2022/08/05 11:05:04;;;;;;;5.65;3.05;;;24.70;99.90;;;23.50;100.00;97720.50;4955408;28;20047;-64